sensor_id;sensor_type;location;lat;lon;timestamp;P1;durP1;ratioP1;P2;durP2;ratioP2
6348;SDS011;3207;42.648;23.406;2023-06-26T00:01:56;9.25;;;7.80;;
6348;SDS011;3207;42.648;23.406;2023-06-26T00:04:23;8.32;;;7.30;;
6348;SDS011;3207;42.648;23.406;2023-06-26T00:06:50;8.30;;;7.50;;
6348;SDS011;3207;42.648;23.406;2023-06-26T00:09:16;8.35;;;7.30;;
6348;SDS011;3207;42.648;23.406;2023-06-26T00:11:43;7.50;;;6.78;;
6348;SDS011;3207;42.648;23.406;2023-06-26T00:14:10;9.10;;;7.60;;
6348;SDS011;3207;42.648;23.406;2023-06-26T00:16:38;8.82;;;7.85;;
6348;SDS011;3207;42.648;23.406;2023-06-26T00:19:07;7.93;;;6.65;;
6348;SDS011;3207;42.648;23.406;2023-06-26T00:21:34;9.65;;;7.38;;
6348;SDS011;3207;42.648;23.406;2023-06-26T00:24:01;7.88;;;7.18;;
6348;SDS011;3207;42.648;23.406;2023-06-26T00:26:28;7.90;;;7.10;;
6348;SDS011;3207;42.648;23.406;2023-06-26T00:28:55;7.43;;;6.72;;
6348;SDS011;3207;42.648;23.406;2023-06-26T00:31:21;8.15;;;7.35;;
6348;SDS011;3207;42.648;23.406;2023-06-26T00:33:49;11.35;;;7.50;;
6348;SDS011;3207;42.648;23.406;2023-06-26T00:36:16;8.02;;;7.22;;
6348;SDS011;3207;42.648;23.406;2023-06-26T00:38:43;8.80;;;7.90;;
6348;SDS011;3207;42.648;23.406;2023-06-26T00:41:10;8.77;;;7.35;;
6348;SDS011;3207;42.648;23.406;2023-06-26T00:43:38;8.48;;;7.65;;
6348;SDS011;3207;42.648;23.406;2023-06-26T00:46:07;8.23;;;7.45;;
6348;SDS011;3207;42.648;23.406;2023-06-26T00:48:36;12.88;;;7.55;;
6348;SDS011;3207;42.648;23.406;2023-06-26T00:51:05;7.78;;;7.07;;
6348;SDS011;3207;42.648;23.406;2023-06-26T00:53:32;9.30;;;7.07;;
6348;SDS011;3207;42.648;23.406;2023-06-26T00:56:00;8.60;;;7.75;;
6348;SDS011;3207;42.648;23.406;2023-06-26T00:58:28;10.27;;;7.60;;
6348;SDS011;3207;42.648;23.406;2023-06-26T01:00:55;8.63;;;7.72;;
6348;SDS011;3207;42.648;23.406;2023-06-26T01:03:22;8.02;;;7.22;;
6348;SDS011;3207;42.648;23.406;2023-06-26T01:05:50;13.13;;;7.97;;
6348;SDS011;3207;42.648;23.406;2023-06-26T01:08:20;8.63;;;7.78;;
6348;SDS011;3207;42.648;23.406;2023-06-26T01:10:48;8.65;;;7.57;;
6348;SDS011;3207;42.648;23.406;2023-06-26T01:13:15;8.68;;;7.22;;
6348;SDS011;3207;42.648;23.406;2023-06-26T01:15:43;8.43;;;7.60;;
6348;SDS011;3207;42.648;23.406;2023-06-26T01:18:09;7.78;;;7.00;;
6348;SDS011;3207;42.648;23.406;2023-06-26T01:20:37;8.07;;;7.38;;
6348;SDS011;3207;42.648;23.406;2023-06-26T01:23:07;13.13;;;7.50;;
6348;SDS011;3207;42.648;23.406;2023-06-26T01:25:47;9.40;;;7.75;;
6348;SDS011;3207;42.648;23.406;2023-06-26T01:28:24;8.85;;;7.22;;
6348;SDS011;3207;42.648;23.406;2023-06-26T01:30:53;8.38;;;7.50;;
6348;SDS011;3207;42.648;23.406;2023-06-26T01:33:21;8.25;;;7.45;;
6348;SDS011;3207;42.648;23.406;2023-06-26T01:35:48;8.50;;;7.63;;
6348;SDS011;3207;42.648;23.406;2023-06-26T01:38:15;9.52;;;8.50;;
6348;SDS011;3207;42.648;23.406;2023-06-26T01:40:43;8.23;;;7.15;;
6348;SDS011;3207;42.648;23.406;2023-06-26T01:43:11;9.07;;;7.45;;
6348;SDS011;3207;42.648;23.406;2023-06-26T01:45:47;8.10;;;7.30;;
6348;SDS011;3207;42.648;23.406;2023-06-26T01:48:16;8.00;;;7.13;;
6348;SDS011;3207;42.648;23.406;2023-06-26T01:50:49;9.30;;;7.82;;
6348;SDS011;3207;42.648;23.406;2023-06-26T01:53:19;10.57;;;7.65;;
6348;SDS011;3207;42.648;23.406;2023-06-26T01:55:50;8.30;;;7.50;;
6348;SDS011;3207;42.648;23.406;2023-06-26T01:58:19;10.93;;;7.53;;
6348;SDS011;3207;42.648;23.406;2023-06-26T02:00:51;8.43;;;7.55;;
6348;SDS011;3207;42.648;23.406;2023-06-26T02:03:18;10.20;;;7.95;;
6348;SDS011;3207;42.648;23.406;2023-06-26T02:05:45;9.07;;;8.05;;
6348;SDS011;3207;42.648;23.406;2023-06-26T02:08:13;10.43;;;8.07;;
6348;SDS011;3207;42.648;23.406;2023-06-26T02:10:41;8.88;;;7.97;;
6348;SDS011;3207;42.648;23.406;2023-06-26T02:13:07;11.18;;;9.00;;
6348;SDS011;3207;42.648;23.406;2023-06-26T02:15:34;10.25;;;7.72;;
6348;SDS011;3207;42.648;23.406;2023-06-26T02:18:02;9.07;;;8.15;;
6348;SDS011;3207;42.648;23.406;2023-06-26T02:20:29;9.70;;;7.68;;
6348;SDS011;3207;42.648;23.406;2023-06-26T02:22:56;9.18;;;8.32;;
6348;SDS011;3207;42.648;23.406;2023-06-26T02:25:23;7.55;;;6.95;;
6348;SDS011;3207;42.648;23.406;2023-06-26T02:27:49;9.90;;;7.65;;
6348;SDS011;3207;42.648;23.406;2023-06-26T02:30:16;9.15;;;7.78;;
6348;SDS011;3207;42.648;23.406;2023-06-26T02:32:43;8.77;;;7.47;;
6348;SDS011;3207;42.648;23.406;2023-06-26T02:35:11;8.68;;;7.85;;
6348;SDS011;3207;42.648;23.406;2023-06-26T02:37:38;9.35;;;8.45;;
6348;SDS011;3207;42.648;23.406;2023-06-26T02:40:05;9.48;;;7.90;;
6348;SDS011;3207;42.648;23.406;2023-06-26T02:42:34;10.63;;;8.30;;
6348;SDS011;3207;42.648;23.406;2023-06-26T02:45:01;9.93;;;8.18;;
6348;SDS011;3207;42.648;23.406;2023-06-26T02:47:27;11.65;;;8.65;;
6348;SDS011;3207;42.648;23.406;2023-06-26T02:49:54;11.70;;;7.90;;
6348;SDS011;3207;42.648;23.406;2023-06-26T02:52:22;8.38;;;7.57;;
6348;SDS011;3207;42.648;23.406;2023-06-26T02:54:49;8.88;;;7.78;;
6348;SDS011;3207;42.648;23.406;2023-06-26T02:57:16;8.73;;;7.78;;
6348;SDS011;3207;42.648;23.406;2023-06-26T02:59:43;9.13;;;8.25;;
6348;SDS011;3207;42.648;23.406;2023-06-26T03:02:09;8.85;;;7.95;;
6348;SDS011;3207;42.648;23.406;2023-06-26T03:04:36;8.98;;;8.02;;
6348;SDS011;3207;42.648;23.406;2023-06-26T03:07:03;11.13;;;9.18;;
6348;SDS011;3207;42.648;23.406;2023-06-26T03:09:32;11.75;;;8.63;;
6348;SDS011;3207;42.648;23.406;2023-06-26T03:11:58;10.27;;;8.32;;
6348;SDS011;3207;42.648;23.406;2023-06-26T03:14:25;8.98;;;7.65;;
6348;SDS011;3207;42.648;23.406;2023-06-26T03:16:53;10.00;;;8.20;;
6348;SDS011;3207;42.648;23.406;2023-06-26T03:19:23;9.15;;;8.10;;
6348;SDS011;3207;42.648;23.406;2023-06-26T03:21:49;13.45;;;8.02;;
6348;SDS011;3207;42.648;23.406;2023-06-26T03:24:16;11.45;;;8.40;;
6348;SDS011;3207;42.648;23.406;2023-06-26T03:26:44;8.57;;;7.68;;
6348;SDS011;3207;42.648;23.406;2023-06-26T03:29:11;15.35;;;8.10;;
6348;SDS011;3207;42.648;23.406;2023-06-26T03:31:38;8.68;;;7.78;;
6348;SDS011;3207;42.648;23.406;2023-06-26T03:34:05;9.25;;;8.32;;
6348;SDS011;3207;42.648;23.406;2023-06-26T03:36:32;11.90;;;8.52;;
6348;SDS011;3207;42.648;23.406;2023-06-26T03:38:58;10.38;;;8.43;;
6348;SDS011;3207;42.648;23.406;2023-06-26T03:41:26;10.85;;;8.98;;
6348;SDS011;3207;42.648;23.406;2023-06-26T03:43:54;9.88;;;8.88;;
6348;SDS011;3207;42.648;23.406;2023-06-26T03:46:21;9.82;;;8.57;;
6348;SDS011;3207;42.648;23.406;2023-06-26T03:48:48;9.30;;;8.40;;
6348;SDS011;3207;42.648;23.406;2023-06-26T03:51:15;11.57;;;9.18;;
6348;SDS011;3207;42.648;23.406;2023-06-26T03:53:42;9.98;;;8.98;;
6348;SDS011;3207;42.648;23.406;2023-06-26T03:56:09;10.38;;;8.80;;
6348;SDS011;3207;42.648;23.406;2023-06-26T03:58:36;10.75;;;8.05;;
6348;SDS011;3207;42.648;23.406;2023-06-26T04:01:04;10.30;;;8.65;;
6348;SDS011;3207;42.648;23.406;2023-06-26T04:03:31;12.93;;;7.70;;
6348;SDS011;3207;42.648;23.406;2023-06-26T04:05:58;9.45;;;8.23;;
6348;SDS011;3207;42.648;23.406;2023-06-26T04:08:24;12.00;;;9.18;;
6348;SDS011;3207;42.648;23.406;2023-06-26T04:10:52;12.32;;;9.35;;
6348;SDS011;3207;42.648;23.406;2023-06-26T04:13:22;10.55;;;9.05;;
6348;SDS011;3207;42.648;23.406;2023-06-26T04:15:49;11.30;;;8.95;;
6348;SDS011;3207;42.648;23.406;2023-06-26T04:18:17;10.27;;;8.18;;
6348;SDS011;3207;42.648;23.406;2023-06-26T04:23:30;10.00;;;8.95;;
6348;SDS011;3207;42.648;23.406;2023-06-26T04:25:57;10.70;;;8.05;;
6348;SDS011;3207;42.648;23.406;2023-06-26T04:28:24;11.00;;;8.25;;
6348;SDS011;3207;42.648;23.406;2023-06-26T04:30:51;9.65;;;8.35;;
6348;SDS011;3207;42.648;23.406;2023-06-26T04:33:20;11.52;;;9.60;;
6348;SDS011;3207;42.648;23.406;2023-06-26T04:35:47;9.88;;;8.60;;
6348;SDS011;3207;42.648;23.406;2023-06-26T04:38:19;13.07;;;9.73;;
6348;SDS011;3207;42.648;23.406;2023-06-26T04:40:47;13.85;;;10.25;;
6348;SDS011;3207;42.648;23.406;2023-06-26T04:43:13;12.45;;;9.68;;
6348;SDS011;3207;42.648;23.406;2023-06-26T04:45:41;10.30;;;8.75;;
6348;SDS011;3207;42.648;23.406;2023-06-26T04:48:08;11.10;;;9.15;;
6348;SDS011;3207;42.648;23.406;2023-06-26T04:50:36;9.48;;;8.50;;
6348;SDS011;3207;42.648;23.406;2023-06-26T04:53:03;12.30;;;8.27;;
6348;SDS011;3207;42.648;23.406;2023-06-26T04:55:30;11.10;;;9.30;;
6348;SDS011;3207;42.648;23.406;2023-06-26T04:57:57;10.52;;;8.93;;
6348;SDS011;3207;42.648;23.406;2023-06-26T05:00:24;11.35;;;9.65;;
6348;SDS011;3207;42.648;23.406;2023-06-26T05:02:51;10.73;;;9.23;;
6348;SDS011;3207;42.648;23.406;2023-06-26T05:05:25;13.80;;;8.93;;
6348;SDS011;3207;42.648;23.406;2023-06-26T05:07:54;13.50;;;9.05;;
6348;SDS011;3207;42.648;23.406;2023-06-26T05:10:21;11.50;;;9.20;;
6348;SDS011;3207;42.648;23.406;2023-06-26T05:12:49;15.43;;;9.73;;
6348;SDS011;3207;42.648;23.406;2023-06-26T05:15:16;13.25;;;10.25;;
6348;SDS011;3207;42.648;23.406;2023-06-26T05:17:42;15.82;;;10.52;;
6348;SDS011;3207;42.648;23.406;2023-06-26T05:20:09;12.20;;;10.43;;
6348;SDS011;3207;42.648;23.406;2023-06-26T05:22:37;11.77;;;9.95;;
6348;SDS011;3207;42.648;23.406;2023-06-26T05:25:07;14.65;;;10.43;;
6348;SDS011;3207;42.648;23.406;2023-06-26T05:27:36;11.63;;;10.32;;
6348;SDS011;3207;42.648;23.406;2023-06-26T05:30:04;12.20;;;10.20;;
6348;SDS011;3207;42.648;23.406;2023-06-26T05:32:32;13.60;;;10.95;;
6348;SDS011;3207;42.648;23.406;2023-06-26T05:35:02;12.85;;;9.52;;
6348;SDS011;3207;42.648;23.406;2023-06-26T05:37:30;14.95;;;10.25;;
6348;SDS011;3207;42.648;23.406;2023-06-26T05:39:58;13.48;;;9.73;;
6348;SDS011;3207;42.648;23.406;2023-06-26T05:42:27;14.57;;;10.15;;
6348;SDS011;3207;42.648;23.406;2023-06-26T05:44:55;10.50;;;9.40;;
6348;SDS011;3207;42.648;23.406;2023-06-26T05:47:22;12.02;;;9.45;;
6348;SDS011;3207;42.648;23.406;2023-06-26T05:49:49;11.35;;;9.05;;
6348;SDS011;3207;42.648;23.406;2023-06-26T05:52:16;11.15;;;9.73;;
6348;SDS011;3207;42.648;23.406;2023-06-26T05:54:43;12.20;;;10.35;;
6348;SDS011;3207;42.648;23.406;2023-06-26T05:57:11;13.20;;;10.23;;
6348;SDS011;3207;42.648;23.406;2023-06-26T05:59:41;11.60;;;10.43;;
6348;SDS011;3207;42.648;23.406;2023-06-26T06:02:09;12.07;;;8.90;;
6348;SDS011;3207;42.648;23.406;2023-06-26T06:04:37;15.60;;;11.13;;
6348;SDS011;3207;42.648;23.406;2023-06-26T06:07:04;16.48;;;10.50;;
6348;SDS011;3207;42.648;23.406;2023-06-26T06:09:31;10.60;;;9.30;;
6348;SDS011;3207;42.648;23.406;2023-06-26T06:11:58;14.75;;;10.38;;
6348;SDS011;3207;42.648;23.406;2023-06-26T06:14:26;13.32;;;8.98;;
6348;SDS011;3207;42.648;23.406;2023-06-26T06:16:54;12.50;;;9.50;;
6348;SDS011;3207;42.648;23.406;2023-06-26T06:19:21;13.77;;;10.48;;
6348;SDS011;3207;42.648;23.406;2023-06-26T06:21:49;12.75;;;10.50;;
6348;SDS011;3207;42.648;23.406;2023-06-26T06:24:15;13.55;;;9.40;;
6348;SDS011;3207;42.648;23.406;2023-06-26T06:26:43;11.48;;;9.07;;
6348;SDS011;3207;42.648;23.406;2023-06-26T06:29:09;12.35;;;10.07;;
6348;SDS011;3207;42.648;23.406;2023-06-26T06:31:36;12.45;;;9.95;;
6348;SDS011;3207;42.648;23.406;2023-06-26T06:34:04;9.57;;;8.52;;
6348;SDS011;3207;42.648;23.406;2023-06-26T06:36:32;9.93;;;8.95;;
6348;SDS011;3207;42.648;23.406;2023-06-26T06:38:58;13.57;;;9.85;;
6348;SDS011;3207;42.648;23.406;2023-06-26T06:41:25;10.68;;;9.35;;
6348;SDS011;3207;42.648;23.406;2023-06-26T06:43:52;9.57;;;8.65;;
6348;SDS011;3207;42.648;23.406;2023-06-26T06:46:19;16.70;;;10.00;;
6348;SDS011;3207;42.648;23.406;2023-06-26T06:48:46;12.00;;;9.48;;
6348;SDS011;3207;42.648;23.406;2023-06-26T06:51:14;14.75;;;9.88;;
6348;SDS011;3207;42.648;23.406;2023-06-26T06:53:41;12.48;;;8.95;;
6348;SDS011;3207;42.648;23.406;2023-06-26T06:56:07;10.38;;;8.77;;
6348;SDS011;3207;42.648;23.406;2023-06-26T06:58:34;10.05;;;9.05;;
6348;SDS011;3207;42.648;23.406;2023-06-26T07:01:01;9.57;;;8.65;;
6348;SDS011;3207;42.648;23.406;2023-06-26T07:03:29;10.43;;;9.43;;
6348;SDS011;3207;42.648;23.406;2023-06-26T07:05:56;17.25;;;9.52;;
6348;SDS011;3207;42.648;23.406;2023-06-26T07:08:24;11.07;;;9.82;;
6348;SDS011;3207;42.648;23.406;2023-06-26T07:10:51;11.35;;;9.57;;
6348;SDS011;3207;42.648;23.406;2023-06-26T07:13:18;13.10;;;10.38;;
6348;SDS011;3207;42.648;23.406;2023-06-26T07:15:45;14.90;;;10.30;;
6348;SDS011;3207;42.648;23.406;2023-06-26T07:18:13;10.10;;;9.10;;
6348;SDS011;3207;42.648;23.406;2023-06-26T07:20:40;14.73;;;8.73;;
6348;SDS011;3207;42.648;23.406;2023-06-26T07:23:07;12.82;;;9.65;;
6348;SDS011;3207;42.648;23.406;2023-06-26T07:25:35;12.93;;;9.00;;
6348;SDS011;3207;42.648;23.406;2023-06-26T07:28:02;11.48;;;8.93;;
6348;SDS011;3207;42.648;23.406;2023-06-26T07:30:29;10.13;;;9.02;;
6348;SDS011;3207;42.648;23.406;2023-06-26T07:32:55;13.50;;;10.55;;
6348;SDS011;3207;42.648;23.406;2023-06-26T07:35:22;9.85;;;8.85;;
6348;SDS011;3207;42.648;23.406;2023-06-26T07:37:50;10.20;;;9.23;;
6348;SDS011;3207;42.648;23.406;2023-06-26T07:40:17;13.32;;;9.95;;
6348;SDS011;3207;42.648;23.406;2023-06-26T07:42:45;10.27;;;9.20;;
6348;SDS011;3207;42.648;23.406;2023-06-26T07:45:12;11.35;;;9.73;;
6348;SDS011;3207;42.648;23.406;2023-06-26T07:47:39;11.32;;;9.45;;
6348;SDS011;3207;42.648;23.406;2023-06-26T07:50:08;10.98;;;9.75;;
6348;SDS011;3207;42.648;23.406;2023-06-26T07:52:35;11.23;;;9.93;;
6348;SDS011;3207;42.648;23.406;2023-06-26T07:55:03;10.63;;;9.55;;
6348;SDS011;3207;42.648;23.406;2023-06-26T07:57:30;14.57;;;10.43;;
6348;SDS011;3207;42.648;23.406;2023-06-26T07:59:58;10.82;;;9.80;;
6348;SDS011;3207;42.648;23.406;2023-06-26T08:02:25;10.95;;;9.45;;
6348;SDS011;3207;42.648;23.406;2023-06-26T08:04:52;13.98;;;10.05;;
6348;SDS011;3207;42.648;23.406;2023-06-26T08:07:19;12.13;;;9.18;;
6348;SDS011;3207;42.648;23.406;2023-06-26T08:09:46;10.68;;;8.80;;
6348;SDS011;3207;42.648;23.406;2023-06-26T08:12:13;10.55;;;9.52;;
6348;SDS011;3207;42.648;23.406;2023-06-26T08:14:40;10.48;;;9.48;;
6348;SDS011;3207;42.648;23.406;2023-06-26T08:17:08;10.77;;;9.70;;
6348;SDS011;3207;42.648;23.406;2023-06-26T08:19:35;10.85;;;9.70;;
6348;SDS011;3207;42.648;23.406;2023-06-26T08:22:01;12.38;;;10.32;;
6348;SDS011;3207;42.648;23.406;2023-06-26T08:24:28;9.05;;;8.20;;
6348;SDS011;3207;42.648;23.406;2023-06-26T08:26:55;10.55;;;9.15;;
6348;SDS011;3207;42.648;23.406;2023-06-26T08:29:23;10.05;;;9.05;;
6348;SDS011;3207;42.648;23.406;2023-06-26T08:31:50;10.20;;;9.20;;
6348;SDS011;3207;42.648;23.406;2023-06-26T08:34:18;9.18;;;8.10;;
6348;SDS011;3207;42.648;23.406;2023-06-26T08:36:45;8.13;;;7.43;;
6348;SDS011;3207;42.648;23.406;2023-06-26T08:39:12;9.77;;;8.73;;
6348;SDS011;3207;42.648;23.406;2023-06-26T08:41:39;9.85;;;8.95;;
6348;SDS011;3207;42.648;23.406;2023-06-26T08:44:05;9.95;;;9.05;;
6348;SDS011;3207;42.648;23.406;2023-06-26T08:46:32;12.90;;;8.68;;
6348;SDS011;3207;42.648;23.406;2023-06-26T08:49:01;9.25;;;8.25;;
6348;SDS011;3207;42.648;23.406;2023-06-26T08:51:32;8.75;;;7.85;;
6348;SDS011;3207;42.648;23.406;2023-06-26T08:54:03;10.05;;;7.60;;
6348;SDS011;3207;42.648;23.406;2023-06-26T08:56:36;8.90;;;8.10;;
6348;SDS011;3207;42.648;23.406;2023-06-26T08:59:06;9.00;;;8.20;;
6348;SDS011;3207;42.648;23.406;2023-06-26T09:01:35;10.23;;;8.38;;
6348;SDS011;3207;42.648;23.406;2023-06-26T09:04:06;9.13;;;8.20;;
6348;SDS011;3207;42.648;23.406;2023-06-26T09:06:34;9.02;;;8.13;;
6348;SDS011;3207;42.648;23.406;2023-06-26T09:09:01;9.50;;;8.65;;
6348;SDS011;3207;42.648;23.406;2023-06-26T09:11:28;8.77;;;8.07;;
6348;SDS011;3207;42.648;23.406;2023-06-26T09:13:55;8.63;;;7.78;;
6348;SDS011;3207;42.648;23.406;2023-06-26T09:16:24;10.02;;;9.07;;
6348;SDS011;3207;42.648;23.406;2023-06-26T09:18:52;9.15;;;8.25;;
6348;SDS011;3207;42.648;23.406;2023-06-26T09:21:19;11.02;;;8.57;;
6348;SDS011;3207;42.648;23.406;2023-06-26T09:23:49;8.85;;;7.47;;
6348;SDS011;3207;42.648;23.406;2023-06-26T09:26:16;8.75;;;7.53;;
6348;SDS011;3207;42.648;23.406;2023-06-26T09:28:43;7.80;;;7.10;;
6348;SDS011;3207;42.648;23.406;2023-06-26T09:31:10;8.60;;;7.80;;
6348;SDS011;3207;42.648;23.406;2023-06-26T09:33:38;8.75;;;8.05;;
6348;SDS011;3207;42.648;23.406;2023-06-26T09:36:07;9.70;;;8.50;;
6348;SDS011;3207;42.648;23.406;2023-06-26T09:38:36;8.35;;;7.60;;
6348;SDS011;3207;42.648;23.406;2023-06-26T09:41:04;8.82;;;7.88;;
6348;SDS011;3207;42.648;23.406;2023-06-26T09:43:31;14.13;;;8.15;;
6348;SDS011;3207;42.648;23.406;2023-06-26T09:45:58;10.93;;;8.65;;
6348;SDS011;3207;42.648;23.406;2023-06-26T09:48:27;11.15;;;8.63;;
6348;SDS011;3207;42.648;23.406;2023-06-26T09:50:55;9.02;;;8.23;;
6348;SDS011;3207;42.648;23.406;2023-06-26T09:53:21;10.68;;;8.13;;
6348;SDS011;3207;42.648;23.406;2023-06-26T09:55:48;12.88;;;8.65;;
6348;SDS011;3207;42.648;23.406;2023-06-26T09:58:17;8.75;;;8.05;;
6348;SDS011;3207;42.648;23.406;2023-06-26T10:00:44;8.98;;;8.18;;
6348;SDS011;3207;42.648;23.406;2023-06-26T10:03:11;8.68;;;7.97;;
6348;SDS011;3207;42.648;23.406;2023-06-26T10:05:38;10.25;;;9.23;;
6348;SDS011;3207;42.648;23.406;2023-06-26T10:08:05;9.85;;;8.23;;
6348;SDS011;3207;42.648;23.406;2023-06-26T10:10:33;8.93;;;8.13;;
6348;SDS011;3207;42.648;23.406;2023-06-26T10:13:04;9.05;;;8.25;;
6348;SDS011;3207;42.648;23.406;2023-06-26T10:15:38;9.35;;;8.55;;
6348;SDS011;3207;42.648;23.406;2023-06-26T10:18:09;9.25;;;8.35;;
6348;SDS011;3207;42.648;23.406;2023-06-26T10:20:37;8.63;;;7.88;;
6348;SDS011;3207;42.648;23.406;2023-06-26T10:23:05;8.65;;;7.82;;
6348;SDS011;3207;42.648;23.406;2023-06-26T10:25:34;9.77;;;8.32;;
6348;SDS011;3207;42.648;23.406;2023-06-26T10:31:38;8.80;;;7.90;;
6348;SDS011;3207;42.648;23.406;2023-06-26T10:37:59;9.43;;;8.38;;
6348;SDS011;3207;42.648;23.406;2023-06-26T10:41:12;10.00;;;7.80;;
6348;SDS011;3207;42.648;23.406;2023-06-26T10:44:47;9.48;;;8.57;;
6348;SDS011;3207;42.648;23.406;2023-06-26T10:54:17;8.80;;;8.10;;
6348;SDS011;3207;42.648;23.406;2023-06-26T10:57:55;14.32;;;8.93;;
6348;SDS011;3207;42.648;23.406;2023-06-26T11:04:04;9.77;;;8.82;;
6348;SDS011;3207;42.648;23.406;2023-06-26T11:10:17;9.75;;;8.85;;
6348;SDS011;3207;42.648;23.406;2023-06-26T11:16:23;8.95;;;8.13;;
6348;SDS011;3207;42.648;23.406;2023-06-26T11:19:17;12.88;;;8.48;;
6348;SDS011;3207;42.648;23.406;2023-06-26T11:25:38;9.52;;;8.63;;
6348;SDS011;3207;42.648;23.406;2023-06-26T11:32:06;9.98;;;9.18;;
6348;SDS011;3207;42.648;23.406;2023-06-26T11:38:54;9.25;;;8.45;;
6348;SDS011;3207;42.648;23.406;2023-06-26T11:49:38;12.45;;;11.25;;
6348;SDS011;3207;42.648;23.406;2023-06-26T11:52:08;8.15;;;7.35;;
6348;SDS011;3207;42.648;23.406;2023-06-26T11:54:35;7.97;;;7.18;;
6348;SDS011;3207;42.648;23.406;2023-06-26T11:57:04;9.20;;;8.30;;
6348;SDS011;3207;42.648;23.406;2023-06-26T11:59:35;8.35;;;7.65;;
6348;SDS011;3207;42.648;23.406;2023-06-26T12:02:06;8.25;;;7.40;;
6348;SDS011;3207;42.648;23.406;2023-06-26T12:04:35;8.23;;;7.57;;
6348;SDS011;3207;42.648;23.406;2023-06-26T12:07:05;8.63;;;7.72;;
6348;SDS011;3207;42.648;23.406;2023-06-26T12:09:34;8.05;;;7.25;;
6348;SDS011;3207;42.648;23.406;2023-06-26T12:12:05;7.70;;;7.00;;
6348;SDS011;3207;42.648;23.406;2023-06-26T12:14:34;7.78;;;7.07;;
6348;SDS011;3207;42.648;23.406;2023-06-26T12:17:04;7.55;;;6.28;;
6348;SDS011;3207;42.648;23.406;2023-06-26T12:19:33;8.10;;;7.35;;
6348;SDS011;3207;42.648;23.406;2023-06-26T12:22:07;7.63;;;6.93;;
6348;SDS011;3207;42.648;23.406;2023-06-26T12:24:36;7.70;;;7.10;;
6348;SDS011;3207;42.648;23.406;2023-06-26T12:27:07;8.40;;;7.03;;
6348;SDS011;3207;42.648;23.406;2023-06-26T12:29:35;7.32;;;6.72;;
6348;SDS011;3207;42.648;23.406;2023-06-26T12:32:02;9.27;;;8.40;;
6348;SDS011;3207;42.648;23.406;2023-06-26T12:34:31;6.95;;;6.35;;
6348;SDS011;3207;42.648;23.406;2023-06-26T12:37:00;9.85;;;7.05;;
6348;SDS011;3207;42.648;23.406;2023-06-26T12:39:29;6.55;;;5.95;;
6348;SDS011;3207;42.648;23.406;2023-06-26T12:42:12;6.50;;;6.00;;
6348;SDS011;3207;42.648;23.406;2023-06-26T12:44:40;6.97;;;6.38;;
6348;SDS011;3207;42.648;23.406;2023-06-26T12:47:07;7.90;;;7.20;;
6348;SDS011;3207;42.648;23.406;2023-06-26T12:49:35;7.95;;;7.18;;
6348;SDS011;3207;42.648;23.406;2023-06-26T12:52:04;8.95;;;8.07;;
6348;SDS011;3207;42.648;23.406;2023-06-26T12:54:34;7.80;;;7.20;;
6348;SDS011;3207;42.648;23.406;2023-06-26T12:57:02;8.48;;;7.68;;
6348;SDS011;3207;42.648;23.406;2023-06-26T12:59:29;8.43;;;7.65;;
6348;SDS011;3207;42.648;23.406;2023-06-26T13:01:56;8.27;;;7.47;;
6348;SDS011;3207;42.648;23.406;2023-06-26T13:04:23;8.02;;;7.32;;
6348;SDS011;3207;42.648;23.406;2023-06-26T13:06:50;7.47;;;6.85;;
6348;SDS011;3207;42.648;23.406;2023-06-26T13:09:19;8.10;;;6.95;;
6348;SDS011;3207;42.648;23.406;2023-06-26T13:11:48;7.70;;;7.00;;
6348;SDS011;3207;42.648;23.406;2023-06-26T13:14:15;8.18;;;7.45;;
6348;SDS011;3207;42.648;23.406;2023-06-26T13:16:41;7.40;;;6.70;;
6348;SDS011;3207;42.648;23.406;2023-06-26T13:19:08;7.15;;;6.65;;
6348;SDS011;3207;42.648;23.406;2023-06-26T13:21:35;8.02;;;7.43;;
6348;SDS011;3207;42.648;23.406;2023-06-26T13:24:04;9.40;;;7.88;;
6348;SDS011;3207;42.648;23.406;2023-06-26T13:26:32;7.70;;;7.10;;
6348;SDS011;3207;42.648;23.406;2023-06-26T13:29:06;7.93;;;7.20;;
6348;SDS011;3207;42.648;23.406;2023-06-26T13:31:33;7.30;;;6.70;;
6348;SDS011;3207;42.648;23.406;2023-06-26T13:34:01;8.27;;;7.57;;
6348;SDS011;3207;42.648;23.406;2023-06-26T13:36:30;8.95;;;7.55;;
6348;SDS011;3207;42.648;23.406;2023-06-26T13:38:59;7.43;;;6.72;;
6348;SDS011;3207;42.648;23.406;2023-06-26T13:41:28;7.30;;;6.72;;
6348;SDS011;3207;42.648;23.406;2023-06-26T13:43:55;7.55;;;6.60;;
6348;SDS011;3207;42.648;23.406;2023-06-26T13:46:23;8.13;;;7.43;;
6348;SDS011;3207;42.648;23.406;2023-06-26T13:48:52;7.53;;;6.78;;
6348;SDS011;3207;42.648;23.406;2023-06-26T13:51:37;7.70;;;7.10;;
6348;SDS011;3207;42.648;23.406;2023-06-26T13:54:10;8.23;;;7.07;;
6348;SDS011;3207;42.648;23.406;2023-06-26T13:56:37;7.53;;;6.90;;
6348;SDS011;3207;42.648;23.406;2023-06-26T13:59:07;8.13;;;7.28;;
6348;SDS011;3207;42.648;23.406;2023-06-26T14:01:38;9.60;;;7.35;;
6348;SDS011;3207;42.648;23.406;2023-06-26T14:04:07;8.15;;;7.32;;
6348;SDS011;3207;42.648;23.406;2023-06-26T14:06:35;8.30;;;7.50;;
6348;SDS011;3207;42.648;23.406;2023-06-26T14:09:06;8.55;;;7.65;;
6348;SDS011;3207;42.648;23.406;2023-06-26T14:11:48;8.82;;;7.93;;
6348;SDS011;3207;42.648;23.406;2023-06-26T14:14:17;8.27;;;7.20;;
6348;SDS011;3207;42.648;23.406;2023-06-26T14:16:48;8.25;;;7.35;;
6348;SDS011;3207;42.648;23.406;2023-06-26T14:19:25;7.78;;;7.18;;
6348;SDS011;3207;42.648;23.406;2023-06-26T14:21:54;9.50;;;6.82;;
6348;SDS011;3207;42.648;23.406;2023-06-26T14:24:21;8.45;;;7.75;;
6348;SDS011;3207;42.648;23.406;2023-06-26T14:26:51;8.20;;;7.43;;
6348;SDS011;3207;42.648;23.406;2023-06-26T14:29:19;7.78;;;6.97;;
6348;SDS011;3207;42.648;23.406;2023-06-26T14:31:48;9.45;;;7.40;;
6348;SDS011;3207;42.648;23.406;2023-06-26T14:34:15;8.73;;;7.32;;
6348;SDS011;3207;42.648;23.406;2023-06-26T14:36:42;7.72;;;7.13;;
6348;SDS011;3207;42.648;23.406;2023-06-26T14:39:08;8.77;;;7.90;;
6348;SDS011;3207;42.648;23.406;2023-06-26T14:41:36;8.48;;;7.78;;
6348;SDS011;3207;42.648;23.406;2023-06-26T14:44:03;8.90;;;7.60;;
6348;SDS011;3207;42.648;23.406;2023-06-26T14:46:33;8.23;;;7.63;;
6348;SDS011;3207;42.648;23.406;2023-06-26T14:49:01;9.93;;;6.80;;
6348;SDS011;3207;42.648;23.406;2023-06-26T14:51:31;7.68;;;6.90;;
6348;SDS011;3207;42.648;23.406;2023-06-26T14:53:57;8.02;;;7.28;;
6348;SDS011;3207;42.648;23.406;2023-06-26T14:56:24;7.63;;;6.93;;
6348;SDS011;3207;42.648;23.406;2023-06-26T14:58:51;7.43;;;6.72;;
6348;SDS011;3207;42.648;23.406;2023-06-26T15:01:18;8.02;;;7.32;;
6348;SDS011;3207;42.648;23.406;2023-06-26T15:03:45;9.95;;;7.25;;
6348;SDS011;3207;42.648;23.406;2023-06-26T15:06:14;7.60;;;6.90;;
6348;SDS011;3207;42.648;23.406;2023-06-26T15:08:41;7.30;;;6.70;;
6348;SDS011;3207;42.648;23.406;2023-06-26T15:11:08;8.57;;;7.65;;
6348;SDS011;3207;42.648;23.406;2023-06-26T15:13:35;10.65;;;7.32;;
6348;SDS011;3207;42.648;23.406;2023-06-26T15:16:02;8.45;;;7.18;;
6348;SDS011;3207;42.648;23.406;2023-06-26T15:18:29;7.63;;;6.90;;
6348;SDS011;3207;42.648;23.406;2023-06-26T15:20:55;7.38;;;6.65;;
6348;SDS011;3207;42.648;23.406;2023-06-26T15:23:24;10.85;;;7.93;;
6348;SDS011;3207;42.648;23.406;2023-06-26T15:25:52;8.13;;;7.43;;
6348;SDS011;3207;42.648;23.406;2023-06-26T15:28:32;8.57;;;7.82;;
6348;SDS011;3207;42.648;23.406;2023-06-26T15:30:59;8.80;;;8.00;;
6348;SDS011;3207;42.648;23.406;2023-06-26T15:33:26;8.07;;;7.38;;
6348;SDS011;3207;42.648;23.406;2023-06-26T15:35:52;7.07;;;6.57;;
6348;SDS011;3207;42.648;23.406;2023-06-26T15:38:20;8.23;;;7.43;;
6348;SDS011;3207;42.648;23.406;2023-06-26T15:40:48;7.43;;;6.80;;
6348;SDS011;3207;42.648;23.406;2023-06-26T15:43:15;8.27;;;7.10;;
6348;SDS011;3207;42.648;23.406;2023-06-26T15:45:44;8.15;;;7.40;;
6348;SDS011;3207;42.648;23.406;2023-06-26T15:48:12;8.60;;;7.80;;
6348;SDS011;3207;42.648;23.406;2023-06-26T15:50:39;8.63;;;7.15;;
6348;SDS011;3207;42.648;23.406;2023-06-26T15:53:06;7.65;;;6.88;;